sensor_id;sensor_type;location;lat;lon;timestamp;temperature;humidity
9847;DHT22;4962;50.084;8.794;2022-12-29T00:01:26;13.10;99.90
9847;DHT22;4962;50.084;8.794;2022-12-29T00:03:52;13.10;99.90
9847;DHT22;4962;50.084;8.794;2022-12-29T00:06:19;13.10;99.90
9847;DHT22;4962;50.084;8.794;2022-12-29T00:08:46;13.10;99.90
9847;DHT22;4962;50.084;8.794;2022-12-29T00:11:15;13.10;99.90
9847;DHT22;4962;50.084;8.794;2022-12-29T00:13:44;13.10;99.90
9847;DHT22;4962;50.084;8.794;2022-12-29T00:16:25;13.10;99.90
9847;DHT22;4962;50.084;8.794;2022-12-29T00:18:52;13.10;99.90
9847;DHT22;4962;50.084;8.794;2022-12-29T00:21:20;13.10;99.90
9847;DHT22;4962;50.084;8.794;2022-12-29T00:24:05;13.00;99.90
9847;DHT22;4962;50.084;8.794;2022-12-29T00:26:55;13.00;99.90
9847;DHT22;4962;50.084;8.794;2022-12-29T00:29:41;13.00;99.90
9847;DHT22;4962;50.084;8.794;2022-12-29T00:32:26;13.00;99.90
9847;DHT22;4962;50.084;8.794;2022-12-29T00:35:16;13.00;99.90
9847;DHT22;4962;50.084;8.794;2022-12-29T00:37:48;13.00;99.90
9847;DHT22;4962;50.084;8.794;2022-12-29T00:40:32;13.00;99.90
9847;DHT22;4962;50.084;8.794;2022-12-29T00:43:31;13.00;99.90
9847;DHT22;4962;50.084;8.794;2022-12-29T00:46:19;13.10;99.90
9847;DHT22;4962;50.084;8.794;2022-12-29T00:48:46;13.10;99.90
9847;DHT22;4962;50.084;8.794;2022-12-29T00:51:30;13.10;99.90
9847;DHT22;4962;50.084;8.794;2022-12-29T00:53:57;13.10;99.90
9847;DHT22;4962;50.084;8.794;2022-12-29T00:56:24;13.10;99.90
9847;DHT22;4962;50.084;8.794;2022-12-29T00:58:51;13.10;99.90
9847;DHT22;4962;50.084;8.794;2022-12-29T01:01:19;13.10;99.90
9847;DHT22;4962;50.084;8.794;2022-12-29T01:03:46;13.10;99.90
9847;DHT22;4962;50.084;8.794;2022-12-29T01:06:20;13.10;99.90
9847;DHT22;4962;50.084;8.794;2022-12-29T01:08:47;13.10;99.90
9847;DHT22;4962;50.084;8.794;2022-12-29T01:11:35;13.10;99.90
9847;DHT22;4962;50.084;8.794;2022-12-29T01:14:00;13.10;99.90
9847;DHT22;4962;50.084;8.794;2022-12-29T01:16:29;13.10;99.90
9847;DHT22;4962;50.084;8.794;2022-12-29T01:18:56;13.00;99.90
9847;DHT22;4962;50.084;8.794;2022-12-29T01:21:23;13.10;99.90
9847;DHT22;4962;50.084;8.794;2022-12-29T01:23:50;13.00;99.90
9847;DHT22;4962;50.084;8.794;2022-12-29T01:26:17;13.10;99.90
9847;DHT22;4962;50.084;8.794;2022-12-29T01:28:45;13.10;99.90
9847;DHT22;4962;50.084;8.794;2022-12-29T01:31:14;13.10;99.90
9847;DHT22;4962;50.084;8.794;2022-12-29T01:33:43;13.20;99.90
9847;DHT22;4962;50.084;8.794;2022-12-29T01:36:11;13.20;99.90
9847;DHT22;4962;50.084;8.794;2022-12-29T01:38:39;13.20;99.90
9847;DHT22;4962;50.084;8.794;2022-12-29T01:41:08;13.30;99.90
9847;DHT22;4962;50.084;8.794;2022-12-29T01:43:42;13.20;99.90
9847;DHT22;4962;50.084;8.794;2022-12-29T01:46:21;13.30;99.90
9847;DHT22;4962;50.084;8.794;2022-12-29T01:48:54;13.20;99.90
9847;DHT22;4962;50.084;8.794;2022-12-29T01:51:23;13.20;99.90
9847;DHT22;4962;50.084;8.794;2022-12-29T01:53:52;13.20;99.90
9847;DHT22;4962;50.084;8.794;2022-12-29T01:56:20;13.10;99.90
9847;DHT22;4962;50.084;8.794;2022-12-29T01:58:50;13.10;99.90
9847;DHT22;4962;50.084;8.794;2022-12-29T02:01:19;13.10;99.90
9847;DHT22;4962;50.084;8.794;2022-12-29T02:03:47;13.10;99.90
9847;DHT22;4962;50.084;8.794;2022-12-29T02:06:21;13.10;99.90
9847;DHT22;4962;50.084;8.794;2022-12-29T02:08:50;13.10;99.90
9847;DHT22;4962;50.084;8.794;2022-12-29T02:11:19;13.10;99.90
9847;DHT22;4962;50.084;8.794;2022-12-29T02:13:48;13.20;99.90
9847;DHT22;4962;50.084;8.794;2022-12-29T02:16:36;13.20;99.90
9847;DHT22;4962;50.084;8.794;2022-12-29T02:19:33;13.20;99.90
9847;DHT22;4962;50.084;8.794;2022-12-29T02:22:17;13.20;99.90
9847;DHT22;4962;50.084;8.794;2022-12-29T02:28:03;13.20;99.90
9847;DHT22;4962;50.084;8.794;2022-12-29T02:30:42;13.30;99.90
9847;DHT22;4962;50.084;8.794;2022-12-29T02:33:21;13.30;99.90
9847;DHT22;4962;50.084;8.794;2022-12-29T02:35:56;13.30;99.90
9847;DHT22;4962;50.084;8.794;2022-12-29T02:38:35;13.30;99.90
9847;DHT22;4962;50.084;8.794;2022-12-29T02:41:12;13.30;99.90
9847;DHT22;4962;50.084;8.794;2022-12-29T02:43:53;13.30;99.90
9847;DHT22;4962;50.084;8.794;2022-12-29T02:46:27;13.40;99.90
9847;DHT22;4962;50.084;8.794;2022-12-29T02:49:03;13.30;99.90
9847;DHT22;4962;50.084;8.794;2022-12-29T02:51:35;13.40;99.90
9847;DHT22;4962;50.084;8.794;2022-12-29T02:54:03;13.40;99.90
9847;DHT22;4962;50.084;8.794;2022-12-29T02:56:48;13.40;99.90
9847;DHT22;4962;50.084;8.794;2022-12-29T02:59:15;13.40;99.90
9847;DHT22;4962;50.084;8.794;2022-12-29T03:02:06;13.30;99.90
9847;DHT22;4962;50.084;8.794;2022-12-29T03:07:50;13.40;99.90
9847;DHT22;4962;50.084;8.794;2022-12-29T03:10:29;13.40;99.90
9847;DHT22;4962;50.084;8.794;2022-12-29T03:13:04;13.40;99.90
9847;DHT22;4962;50.084;8.794;2022-12-29T03:16:14;13.50;99.90
9847;DHT22;4962;50.084;8.794;2022-12-29T03:18:50;13.50;99.90
9847;DHT22;4962;50.084;8.794;2022-12-29T03:21:24;13.50;99.90
9847;DHT22;4962;50.084;8.794;2022-12-29T03:24:15;13.50;99.90
9847;DHT22;4962;50.084;8.794;2022-12-29T03:26:43;13.50;99.90
9847;DHT22;4962;50.084;8.794;2022-12-29T03:29:12;13.60;99.90
9847;DHT22;4962;50.084;8.794;2022-12-29T03:31:41;13.60;99.90
9847;DHT22;4962;50.084;8.794;2022-12-29T03:34:12;13.60;99.90
9847;DHT22;4962;50.084;8.794;2022-12-29T03:36:44;13.60;99.90
9847;DHT22;4962;50.084;8.794;2022-12-29T03:39:13;13.70;99.90
9847;DHT22;4962;50.084;8.794;2022-12-29T03:41:42;13.60;99.90
9847;DHT22;4962;50.084;8.794;2022-12-29T03:44:10;13.70;99.90
9847;DHT22;4962;50.084;8.794;2022-12-29T03:46:37;13.70;99.90
9847;DHT22;4962;50.084;8.794;2022-12-29T03:49:04;13.60;99.90
9847;DHT22;4962;50.084;8.794;2022-12-29T03:51:32;13.70;99.90
9847;DHT22;4962;50.084;8.794;2022-12-29T03:53:58;13.70;99.90
9847;DHT22;4962;50.084;8.794;2022-12-29T03:56:25;13.80;99.90
9847;DHT22;4962;50.084;8.794;2022-12-29T03:58:52;13.70;99.90
9847;DHT22;4962;50.084;8.794;2022-12-29T04:01:19;13.70;99.90
9847;DHT22;4962;50.084;8.794;2022-12-29T04:03:46;13.70;99.90
9847;DHT22;4962;50.084;8.794;2022-12-29T04:06:13;13.80;99.90
9847;DHT22;4962;50.084;8.794;2022-12-29T04:08:41;13.80;99.90
9847;DHT22;4962;50.084;8.794;2022-12-29T04:11:08;13.70;99.90
9847;DHT22;4962;50.084;8.794;2022-12-29T04:13:35;13.80;99.90
9847;DHT22;4962;50.084;8.794;2022-12-29T04:16:06;13.80;99.90
9847;DHT22;4962;50.084;8.794;2022-12-29T04:18:33;13.70;99.90
9847;DHT22;4962;50.084;8.794;2022-12-29T04:21:00;13.70;99.90
9847;DHT22;4962;50.084;8.794;2022-12-29T04:23:28;13.80;99.90
9847;DHT22;4962;50.084;8.794;2022-12-29T04:25:56;13.80;99.90
9847;DHT22;4962;50.084;8.794;2022-12-29T04:28:24;13.80;99.90
9847;DHT22;4962;50.084;8.794;2022-12-29T04:30:50;13.80;99.90
9847;DHT22;4962;50.084;8.794;2022-12-29T04:33:18;13.80;99.90
9847;DHT22;4962;50.084;8.794;2022-12-29T04:35:45;13.90;99.90
9847;DHT22;4962;50.084;8.794;2022-12-29T04:38:12;13.90;99.90
9847;DHT22;4962;50.084;8.794;2022-12-29T04:40:40;13.90;99.90
9847;DHT22;4962;50.084;8.794;2022-12-29T04:43:09;13.80;99.90
9847;DHT22;4962;50.084;8.794;2022-12-29T04:45:35;13.90;99.90
9847;DHT22;4962;50.084;8.794;2022-12-29T04:48:03;13.90;99.90
9847;DHT22;4962;50.084;8.794;2022-12-29T04:50:30;13.90;99.90
9847;DHT22;4962;50.084;8.794;2022-12-29T04:52:57;13.90;99.90
9847;DHT22;4962;50.084;8.794;2022-12-29T04:55:34;13.90;99.90
9847;DHT22;4962;50.084;8.794;2022-12-29T04:58:01;13.80;99.90
9847;DHT22;4962;50.084;8.794;2022-12-29T05:00:29;13.80;99.90
9847;DHT22;4962;50.084;8.794;2022-12-29T05:02:56;13.80;99.90
9847;DHT22;4962;50.084;8.794;2022-12-29T05:05:23;13.80;99.90
9847;DHT22;4962;50.084;8.794;2022-12-29T05:07:50;13.80;99.90
9847;DHT22;4962;50.084;8.794;2022-12-29T05:10:17;13.80;99.90
9847;DHT22;4962;50.084;8.794;2022-12-29T05:12:44;13.90;99.90
9847;DHT22;4962;50.084;8.794;2022-12-29T05:15:11;13.90;99.90
9847;DHT22;4962;50.084;8.794;2022-12-29T05:17:40;13.90;99.90
9847;DHT22;4962;50.084;8.794;2022-12-29T05:20:07;13.90;99.90
9847;DHT22;4962;50.084;8.794;2022-12-29T05:22:34;13.80;99.90
9847;DHT22;4962;50.084;8.794;2022-12-29T05:25:02;13.80;99.90
9847;DHT22;4962;50.084;8.794;2022-12-29T05:27:28;13.80;99.90
9847;DHT22;4962;50.084;8.794;2022-12-29T05:29:55;13.80;99.90
9847;DHT22;4962;50.084;8.794;2022-12-29T05:32:23;13.80;99.90
9847;DHT22;4962;50.084;8.794;2022-12-29T05:34:51;13.90;99.90
9847;DHT22;4962;50.084;8.794;2022-12-29T05:37:18;13.90;99.90
9847;DHT22;4962;50.084;8.794;2022-12-29T05:39:45;13.90;99.90
9847;DHT22;4962;50.084;8.794;2022-12-29T05:42:12;13.90;99.90
9847;DHT22;4962;50.084;8.794;2022-12-29T05:44:39;13.90;99.90
9847;DHT22;4962;50.084;8.794;2022-12-29T05:47:06;13.80;99.90
9847;DHT22;4962;50.084;8.794;2022-12-29T05:49:33;13.80;99.90
9847;DHT22;4962;50.084;8.794;2022-12-29T05:52:01;13.80;99.90
9847;DHT22;4962;50.084;8.794;2022-12-29T05:54:28;13.80;99.90
9847;DHT22;4962;50.084;8.794;2022-12-29T05:56:55;13.80;99.90
9847;DHT22;4962;50.084;8.794;2022-12-29T05:59:22;13.80;99.90
9847;DHT22;4962;50.084;8.794;2022-12-29T06:01:49;13.80;99.90
9847;DHT22;4962;50.084;8.794;2022-12-29T06:04:16;13.80;99.90
9847;DHT22;4962;50.084;8.794;2022-12-29T06:06:43;13.80;99.90
9847;DHT22;4962;50.084;8.794;2022-12-29T06:09:11;13.80;99.90
9847;DHT22;4962;50.084;8.794;2022-12-29T06:11:38;13.80;99.90
9847;DHT22;4962;50.084;8.794;2022-12-29T06:14:08;13.80;99.90
9847;DHT22;4962;50.084;8.794;2022-12-29T06:16:35;13.80;99.90
9847;DHT22;4962;50.084;8.794;2022-12-29T06:19:02;13.70;99.90
9847;DHT22;4962;50.084;8.794;2022-12-29T06:21:29;13.80;99.90
9847;DHT22;4962;50.084;8.794;2022-12-29T06:23:56;13.80;99.90
9847;DHT22;4962;50.084;8.794;2022-12-29T06:26:25;13.80;99.90
9847;DHT22;4962;50.084;8.794;2022-12-29T06:28:54;13.80;99.90
9847;DHT22;4962;50.084;8.794;2022-12-29T06:31:22;13.80;99.90
9847;DHT22;4962;50.084;8.794;2022-12-29T06:33:49;13.80;99.90
9847;DHT22;4962;50.084;8.794;2022-12-29T06:36:16;13.70;99.90
9847;DHT22;4962;50.084;8.794;2022-12-29T06:38:43;13.70;99.90
9847;DHT22;4962;50.084;8.794;2022-12-29T06:41:10;13.70;99.90
9847;DHT22;4962;50.084;8.794;2022-12-29T06:43:38;13.70;99.90
9847;DHT22;4962;50.084;8.794;2022-12-29T06:46:05;13.70;99.90
9847;DHT22;4962;50.084;8.794;2022-12-29T06:48:32;13.70;99.90
9847;DHT22;4962;50.084;8.794;2022-12-29T06:50:59;13.70;99.90
9847;DHT22;4962;50.084;8.794;2022-12-29T06:53:26;13.70;99.90
9847;DHT22;4962;50.084;8.794;2022-12-29T06:55:53;13.80;99.90
9847;DHT22;4962;50.084;8.794;2022-12-29T06:58:22;13.70;99.90
9847;DHT22;4962;50.084;8.794;2022-12-29T07:00:50;13.80;99.90
9847;DHT22;4962;50.084;8.794;2022-12-29T07:03:17;13.80;99.90
9847;DHT22;4962;50.084;8.794;2022-12-29T07:05:44;13.80;99.90
9847;DHT22;4962;50.084;8.794;2022-12-29T07:08:12;13.90;99.90
9847;DHT22;4962;50.084;8.794;2022-12-29T07:10:40;13.90;99.90
9847;DHT22;4962;50.084;8.794;2022-12-29T07:13:07;13.90;99.90
9847;DHT22;4962;50.084;8.794;2022-12-29T07:15:34;13.80;99.90
9847;DHT22;4962;50.084;8.794;2022-12-29T07:18:04;13.70;99.90
9847;DHT22;4962;50.084;8.794;2022-12-29T07:20:30;13.80;99.90
9847;DHT22;4962;50.084;8.794;2022-12-29T07:22:57;13.80;99.90
9847;DHT22;4962;50.084;8.794;2022-12-29T07:25:24;13.80;99.90
9847;DHT22;4962;50.084;8.794;2022-12-29T07:27:51;13.80;99.90
9847;DHT22;4962;50.084;8.794;2022-12-29T07:30:18;13.80;99.90
9847;DHT22;4962;50.084;8.794;2022-12-29T07:32:45;13.80;99.90
9847;DHT22;4962;50.084;8.794;2022-12-29T07:35:14;13.80;99.90
9847;DHT22;4962;50.084;8.794;2022-12-29T07:37:41;13.80;99.90
9847;DHT22;4962;50.084;8.794;2022-12-29T07:40:09;13.80;99.90
9847;DHT22;4962;50.084;8.794;2022-12-29T07:42:36;13.80;99.90
9847;DHT22;4962;50.084;8.794;2022-12-29T07:45:04;13.80;99.90
9847;DHT22;4962;50.084;8.794;2022-12-29T07:47:31;13.80;99.90
9847;DHT22;4962;50.084;8.794;2022-12-29T07:49:58;13.90;99.90
9847;DHT22;4962;50.084;8.794;2022-12-29T07:52:27;13.80;99.90
9847;DHT22;4962;50.084;8.794;2022-12-29T07:54:55;13.80;99.90
9847;DHT22;4962;50.084;8.794;2022-12-29T07:57:22;13.80;99.90
9847;DHT22;4962;50.084;8.794;2022-12-29T07:59:49;13.80;99.90
9847;DHT22;4962;50.084;8.794;2022-12-29T08:02:16;13.80;99.90
9847;DHT22;4962;50.084;8.794;2022-12-29T08:04:42;13.80;99.90
9847;DHT22;4962;50.084;8.794;2022-12-29T08:07:09;13.80;99.90
9847;DHT22;4962;50.084;8.794;2022-12-29T08:09:38;13.80;99.90
9847;DHT22;4962;50.084;8.794;2022-12-29T08:12:05;13.80;99.90
9847;DHT22;4962;50.084;8.794;2022-12-29T08:14:32;13.80;99.90
9847;DHT22;4962;50.084;8.794;2022-12-29T08:16:59;13.80;99.90
9847;DHT22;4962;50.084;8.794;2022-12-29T08:19:26;13.80;99.90
9847;DHT22;4962;50.084;8.794;2022-12-29T08:21:55;13.90;99.90
9847;DHT22;4962;50.084;8.794;2022-12-29T08:24:22;13.80;99.90
9847;DHT22;4962;50.084;8.794;2022-12-29T08:26:51;13.80;99.90
9847;DHT22;4962;50.084;8.794;2022-12-29T08:29:17;13.80;99.90
9847;DHT22;4962;50.084;8.794;2022-12-29T08:31:45;13.80;99.90
9847;DHT22;4962;50.084;8.794;2022-12-29T08:34:11;13.90;99.90
9847;DHT22;4962;50.084;8.794;2022-12-29T08:36:38;13.80;99.90
9847;DHT22;4962;50.084;8.794;2022-12-29T08:39:05;13.90;99.90
9847;DHT22;4962;50.084;8.794;2022-12-29T08:41:32;13.80;99.90
9847;DHT22;4962;50.084;8.794;2022-12-29T08:44:01;13.80;99.90
9847;DHT22;4962;50.084;8.794;2022-12-29T08:46:28;13.80;99.90
9847;DHT22;4962;50.084;8.794;2022-12-29T08:48:55;13.80;99.90
9847;DHT22;4962;50.084;8.794;2022-12-29T08:51:22;13.80;99.90
9847;DHT22;4962;50.084;8.794;2022-12-29T08:53:49;13.80;99.90
9847;DHT22;4962;50.084;8.794;2022-12-29T08:56:16;13.80;99.90
9847;DHT22;4962;50.084;8.794;2022-12-29T08:58:43;13.90;99.90
9847;DHT22;4962;50.084;8.794;2022-12-29T09:01:11;13.80;99.90
9847;DHT22;4962;50.084;8.794;2022-12-29T09:03:38;13.80;99.90
9847;DHT22;4962;50.084;8.794;2022-12-29T09:06:05;13.90;99.90
9847;DHT22;4962;50.084;8.794;2022-12-29T09:08:32;13.80;99.90
9847;DHT22;4962;50.084;8.794;2022-12-29T09:11:06;13.80;99.90
9847;DHT22;4962;50.084;8.794;2022-12-29T09:13:34;13.70;99.90
9847;DHT22;4962;50.084;8.794;2022-12-29T09:16:01;13.60;99.90
9847;DHT22;4962;50.084;8.794;2022-12-29T09:18:30;13.60;99.90
9847;DHT22;4962;50.084;8.794;2022-12-29T09:20:59;13.60;99.90
9847;DHT22;4962;50.084;8.794;2022-12-29T09:23:26;13.60;99.90
9847;DHT22;4962;50.084;8.794;2022-12-29T09:25:54;13.50;99.90
9847;DHT22;4962;50.084;8.794;2022-12-29T09:28:21;13.60;99.90
9847;DHT22;4962;50.084;8.794;2022-12-29T09:30:48;13.60;99.90
9847;DHT22;4962;50.084;8.794;2022-12-29T09:33:16;13.60;99.90
9847;DHT22;4962;50.084;8.794;2022-12-29T09:35:45;13.60;99.90
9847;DHT22;4962;50.084;8.794;2022-12-29T09:38:16;13.60;99.90
9847;DHT22;4962;50.084;8.794;2022-12-29T09:40:44;13.70;99.90
9847;DHT22;4962;50.084;8.794;2022-12-29T09:43:22;13.70;99.90
9847;DHT22;4962;50.084;8.794;2022-12-29T09:45:57;13.70;99.90
9847;DHT22;4962;50.084;8.794;2022-12-29T09:48:29;13.80;99.90
9847;DHT22;4962;50.084;8.794;2022-12-29T09:51:05;13.80;99.90
9847;DHT22;4962;50.084;8.794;2022-12-29T09:53:40;13.80;99.90
9847;DHT22;4962;50.084;8.794;2022-12-29T09:56:18;13.80;99.90
9847;DHT22;4962;50.084;8.794;2022-12-29T09:58:54;13.80;99.90
9847;DHT22;4962;50.084;8.794;2022-12-29T10:01:41;13.80;99.90
9847;DHT22;4962;50.084;8.794;2022-12-29T10:04:12;13.90;99.90
9847;DHT22;4962;50.084;8.794;2022-12-29T10:06:49;13.90;99.90
9847;DHT22;4962;50.084;8.794;2022-12-29T10:09:23;13.90;99.90
9847;DHT22;4962;50.084;8.794;2022-12-29T10:12:02;13.90;99.90
9847;DHT22;4962;50.084;8.794;2022-12-29T10:14:44;14.00;99.90
9847;DHT22;4962;50.084;8.794;2022-12-29T10:17:24;14.00;99.90
9847;DHT22;4962;50.084;8.794;2022-12-29T10:20:20;14.00;99.90
9847;DHT22;4962;50.084;8.794;2022-12-29T10:23:09;13.90;99.90
9847;DHT22;4962;50.084;8.794;2022-12-29T10:25:41;13.90;99.90
9847;DHT22;4962;50.084;8.794;2022-12-29T10:28:17;14.00;99.90
9847;DHT22;4962;50.084;8.794;2022-12-29T10:30:47;13.90;99.90
9847;DHT22;4962;50.084;8.794;2022-12-29T10:33:18;13.90;99.90
9847;DHT22;4962;50.084;8.794;2022-12-29T10:35:51;13.90;99.90
9847;DHT22;4962;50.084;8.794;2022-12-29T10:38:23;14.00;99.90
9847;DHT22;4962;50.084;8.794;2022-12-29T10:40:57;14.00;99.90
9847;DHT22;4962;50.084;8.794;2022-12-29T10:43:27;14.00;99.90
9847;DHT22;4962;50.084;8.794;2022-12-29T10:45:56;14.10;99.90
9847;DHT22;4962;50.084;8.794;2022-12-29T10:48:27;14.00;99.90
9847;DHT22;4962;50.084;8.794;2022-12-29T10:50:57;14.10;99.90
9847;DHT22;4962;50.084;8.794;2022-12-29T10:53:30;14.00;99.90
9847;DHT22;4962;50.084;8.794;2022-12-29T10:56:00;14.00;99.90
9847;DHT22;4962;50.084;8.794;2022-12-29T10:58:29;14.00;99.90
9847;DHT22;4962;50.084;8.794;2022-12-29T11:01:08;14.00;99.90
9847;DHT22;4962;50.084;8.794;2022-12-29T11:03:53;14.00;99.90
9847;DHT22;4962;50.084;8.794;2022-12-29T11:06:28;14.00;99.90
9847;DHT22;4962;50.084;8.794;2022-12-29T11:09:51;14.00;99.90
9847;DHT22;4962;50.084;8.794;2022-12-29T11:16:40;14.00;99.90
9847;DHT22;4962;50.084;8.794;2022-12-29T11:19:21;14.10;99.90
9847;DHT22;4962;50.084;8.794;2022-12-29T11:21:52;14.10;99.90
9847;DHT22;4962;50.084;8.794;2022-12-29T11:28:00;14.10;99.90
9847;DHT22;4962;50.084;8.794;2022-12-29T11:30:31;14.00;99.90
9847;DHT22;4962;50.084;8.794;2022-12-29T11:33:07;14.00;99.90
9847;DHT22;4962;50.084;8.794;2022-12-29T11:35:46;14.10;99.90
9847;DHT22;4962;50.084;8.794;2022-12-29T11:42:23;14.00;99.90
9847;DHT22;4962;50.084;8.794;2022-12-29T11:45:42;14.00;99.90
9847;DHT22;4962;50.084;8.794;2022-12-29T11:48:23;14.00;99.90
9847;DHT22;4962;50.084;8.794;2022-12-29T11:51:07;14.00;99.90
9847;DHT22;4962;50.084;8.794;2022-12-29T11:53:42;14.00;99.90
9847;DHT22;4962;50.084;8.794;2022-12-29T11:56:12;14.10;99.90
9847;DHT22;4962;50.084;8.794;2022-12-29T11:58:59;14.10;99.90
9847;DHT22;4962;50.084;8.794;2022-12-29T12:01:47;14.10;99.90
9847;DHT22;4962;50.084;8.794;2022-12-29T12:04:22;14.10;99.90
9847;DHT22;4962;50.084;8.794;2022-12-29T12:06:59;14.20;99.90
9847;DHT22;4962;50.084;8.794;2022-12-29T12:09:32;14.20;99.90
9847;DHT22;4962;50.084;8.794;2022-12-29T12:12:05;14.20;99.90
9847;DHT22;4962;50.084;8.794;2022-12-29T12:14:40;14.10;99.90
9847;DHT22;4962;50.084;8.794;2022-12-29T12:17:21;14.10;99.90
9847;DHT22;4962;50.084;8.794;2022-12-29T12:19:58;14.10;99.90
9847;DHT22;4962;50.084;8.794;2022-12-29T12:22:29;14.00;99.90
9847;DHT22;4962;50.084;8.794;2022-12-29T12:25:03;14.10;99.90
9847;DHT22;4962;50.084;8.794;2022-12-29T12:27:41;14.10;99.90
9847;DHT22;4962;50.084;8.794;2022-12-29T12:30:15;14.10;99.90
9847;DHT22;4962;50.084;8.794;2022-12-29T12:32:48;14.10;99.90
9847;DHT22;4962;50.084;8.794;2022-12-29T12:35:25;14.10;99.90
9847;DHT22;4962;50.084;8.794;2022-12-29T12:38:16;14.20;99.90
9847;DHT22;4962;50.084;8.794;2022-12-29T12:41:08;14.10;99.90
9847;DHT22;4962;50.084;8.794;2022-12-29T12:43:41;14.10;99.90
9847;DHT22;4962;50.084;8.794;2022-12-29T12:46:38;14.10;99.90
9847;DHT22;4962;50.084;8.794;2022-12-29T12:49:21;14.10;99.90
9847;DHT22;4962;50.084;8.794;2022-12-29T12:52:04;14.10;99.90
9847;DHT22;4962;50.084;8.794;2022-12-29T12:54:42;14.10;99.90
9847;DHT22;4962;50.084;8.794;2022-12-29T12:57:19;14.10;99.90
9847;DHT22;4962;50.084;8.794;2022-12-29T12:59:56;14.10;99.90
9847;DHT22;4962;50.084;8.794;2022-12-29T13:02:43;14.10;99.90
9847;DHT22;4962;50.084;8.794;2022-12-29T13:05:38;14.10;99.90
9847;DHT22;4962;50.084;8.794;2022-12-29T13:08:26;14.20;99.90
9847;DHT22;4962;50.084;8.794;2022-12-29T13:11:02;14.10;99.90
9847;DHT22;4962;50.084;8.794;2022-12-29T13:13:49;14.10;99.90
9847;DHT22;4962;50.084;8.794;2022-12-29T13:16:25;14.10;99.90
9847;DHT22;4962;50.084;8.794;2022-12-29T13:19:03;14.00;99.90
9847;DHT22;4962;50.084;8.794;2022-12-29T13:21:44;14.00;99.90
9847;DHT22;4962;50.084;8.794;2022-12-29T13:24:16;14.00;99.90
9847;DHT22;4962;50.084;8.794;2022-12-29T13:26:49;14.00;99.90
9847;DHT22;4962;50.084;8.794;2022-12-29T13:29:22;14.10;99.90
9847;DHT22;4962;50.084;8.794;2022-12-29T13:31:56;14.20;99.90
9847;DHT22;4962;50.084;8.794;2022-12-29T13:34:42;14.20;99.90
9847;DHT22;4962;50.084;8.794;2022-12-29T13:37:16;14.20;99.90
9847;DHT22;4962;50.084;8.794;2022-12-29T13:39:48;14.20;99.90
9847;DHT22;4962;50.084;8.794;2022-12-29T13:42:17;14.20;99.90
9847;DHT22;4962;50.084;8.794;2022-12-29T13:44:48;14.20;99.90
9847;DHT22;4962;50.084;8.794;2022-12-29T13:47:21;14.20;99.90
9847;DHT22;4962;50.084;8.794;2022-12-29T13:49:54;14.20;99.90
9847;DHT22;4962;50.084;8.794;2022-12-29T13:52:31;14.20;99.90
9847;DHT22;4962;50.084;8.794;2022-12-29T13:55:06;14.20;99.90
9847;DHT22;4962;50.084;8.794;2022-12-29T13:57:43;14.10;99.90
9847;DHT22;4962;50.084;8.794;2022-12-29T14:00:16;14.10;99.90
9847;DHT22;4962;50.084;8.794;2022-12-29T14:02:59;14.00;99.90
9847;DHT22;4962;50.084;8.794;2022-12-29T14:05:32;14.00;99.90
9847;DHT22;4962;50.084;8.794;2022-12-29T14:08:01;14.00;99.90
9847;DHT22;4962;50.084;8.794;2022-12-29T14:10:31;14.00;99.90
9847;DHT22;4962;50.084;8.794;2022-12-29T14:13:05;14.00;99.90
9847;DHT22;4962;50.084;8.794;2022-12-29T14:15:33;14.00;99.90
9847;DHT22;4962;50.084;8.794;2022-12-29T14:18:13;14.00;99.90
9847;DHT22;4962;50.084;8.794;2022-12-29T14:20:52;14.00;99.90
9847;DHT22;4962;50.084;8.794;2022-12-29T14:23:34;14.10;99.90
9847;DHT22;4962;50.084;8.794;2022-12-29T14:26:14;14.00;99.90
9847;DHT22;4962;50.084;8.794;2022-12-29T14:28:42;14.00;99.90
9847;DHT22;4962;50.084;8.794;2022-12-29T14:31:35;14.00;99.90
9847;DHT22;4962;50.084;8.794;2022-12-29T14:34:30;14.00;99.90
9847;DHT22;4962;50.084;8.794;2022-12-29T14:37:23;14.00;99.90
9847;DHT22;4962;50.084;8.794;2022-12-29T14:40:03;14.00;99.90
9847;DHT22;4962;50.084;8.794;2022-12-29T14:42:32;13.90;99.90
9847;DHT22;4962;50.084;8.794;2022-12-29T14:45:06;14.00;99.90
9847;DHT22;4962;50.084;8.794;2022-12-29T14:47:40;13.90;99.90
9847;DHT22;4962;50.084;8.794;2022-12-29T14:50:13;13.90;99.90
9847;DHT22;4962;50.084;8.794;2022-12-29T14:52:46;13.90;99.90
9847;DHT22;4962;50.084;8.794;2022-12-29T14:55:37;13.80;99.90
9847;DHT22;4962;50.084;8.794;2022-12-29T14:58:06;13.80;99.90
9847;DHT22;4962;50.084;8.794;2022-12-29T15:00:34;13.80;99.90
9847;DHT22;4962;50.084;8.794;2022-12-29T15:03:05;13.80;99.90
9847;DHT22;4962;50.084;8.794;2022-12-29T15:05:36;13.80;99.90
9847;DHT22;4962;50.084;8.794;2022-12-29T15:08:06;13.90;99.90
9847;DHT22;4962;50.084;8.794;2022-12-29T15:10:41;13.90;99.90
9847;DHT22;4962;50.084;8.794;2022-12-29T15:13:23;13.90;99.90
9847;DHT22;4962;50.084;8.794;2022-12-29T15:15:52;13.90;99.90
9847;DHT22;4962;50.084;8.794;2022-12-29T15:18:24;13.90;99.90
9847;DHT22;4962;50.084;8.794;2022-12-29T15:20:54;13.80;99.90
9847;DHT22;4962;50.084;8.794;2022-12-29T15:23:27;13.80;99.90
9847;DHT22;4962;50.084;8.794;2022-12-29T15:25:57;13.80;99.90
9847;DHT22;4962;50.084;8.794;2022-12-29T15:28:25;13.80;99.90
9847;DHT22;4962;50.084;8.794;2022-12-29T15:30:54;13.80;99.90
9847;DHT22;4962;50.084;8.794;2022-12-29T15:33:23;13.80;99.90
9847;DHT22;4962;50.084;8.794;2022-12-29T15:35:51;13.80;99.90
9847;DHT22;4962;50.084;8.794;2022-12-29T15:38:22;13.80;99.90
9847;DHT22;4962;50.084;8.794;2022-12-29T15:40:54;13.80;99.90
9847;DHT22;4962;50.084;8.794;2022-12-29T15:46:10;13.70;99.90
9847;DHT22;4962;50.084;8.794;2022-12-29T15:48:38;13.70;99.90
9847;DHT22;4962;50.084;8.794;2022-12-29T15:51:15;13.70;99.90
9847;DHT22;4962;50.084;8.794;2022-12-29T15:53:47;13.60;99.90
9847;DHT22;4962;50.084;8.794;2022-12-29T15:56:16;13.70;99.90
9847;DHT22;4962;50.084;8.794;2022-12-29T15:58:47;13.70;99.90
9847;DHT22;4962;50.084;8.794;2022-12-29T16:01:22;13.70;99.90
9847;DHT22;4962;50.084;8.794;2022-12-29T16:03:51;13.60;99.90
9847;DHT22;4962;50.084;8.794;2022-12-29T16:06:32;13.60;99.90
9847;DHT22;4962;50.084;8.794;2022-12-29T16:09:01;13.60;99.90
9847;DHT22;4962;50.084;8.794;2022-12-29T16:11:34;13.60;99.90
9847;DHT22;4962;50.084;8.794;2022-12-29T16:14:05;13.50;99.90
9847;DHT22;4962;50.084;8.794;2022-12-29T16:16:37;13.40;99.90
9847;DHT22;4962;50.084;8.794;2022-12-29T16:19:12;13.40;99.90
9847;DHT22;4962;50.084;8.794;2022-12-29T16:21:45;13.30;99.90
9847;DHT22;4962;50.084;8.794;2022-12-29T16:24:18;13.30;99.90
9847;DHT22;4962;50.084;8.794;2022-12-29T16:26:59;13.20;99.90
9847;DHT22;4962;50.084;8.794;2022-12-29T16:29:35;13.20;99.90
9847;DHT22;4962;50.084;8.794;2022-12-29T16:32:02;13.10;99.90
9847;DHT22;4962;50.084;8.794;2022-12-29T16:34:49;13.10;99.90
9847;DHT22;4962;50.084;8.794;2022-12-29T16:37:28;13.10;99.90
9847;DHT22;4962;50.084;8.794;2022-12-29T16:39:56;13.10;99.90
9847;DHT22;4962;50.084;8.794;2022-12-29T16:42:45;13.00;99.90
9847;DHT22;4962;50.084;8.794;2022-12-29T16:48:57;12.90;99.90
9847;DHT22;4962;50.084;8.794;2022-12-29T16:51:35;12.90;99.90
9847;DHT22;4962;50.084;8.794;2022-12-29T16:54:20;12.90;99.90
9847;DHT22;4962;50.084;8.794;2022-12-29T16:56:48;12.90;99.90
9847;DHT22;4962;50.084;8.794;2022-12-29T16:59:26;12.90;99.90
9847;DHT22;4962;50.084;8.794;2022-12-29T17:01:56;13.00;99.90